Time;durP1;ratioP1;P1;durP2;ratioP2;P2;SDS_P1;SDS_P2;PMS_P1;PMS_P2;Temp;Humidity;BMP_temperature;BMP_pressure;BME280_temperature;BME280_humidity;BME280_pressure;Samples;Min_cycle;Max_cycle;Signal;HPM_P1;HPM_P2
2021/08/19 00:00:24;;;;;;;3.45;2.78;;;;;;;18.10;63.21;100448.31;4993332;28;20018;-48
2021/08/19 00:02:49;;;;;;;3.33;3.03;;;;;;;18.09;63.20;100446.59;4993080;28;20019;-48
2021/08/19 00:05:14;;;;;;;3.63;3.33;;;;;;;18.08;63.39;100450.16;4993292;28;20413;-47
2021/08/19 00:07:40;;;;;;;3.40;3.10;;;;;;;18.10;63.24;100452.81;4995514;28;20022;-49
2021/08/19 00:10:05;;;;;;;3.58;3.28;;;;;;;18.08;63.30;100455.50;5000039;28;20022;-48
2021/08/19 00:12:31;;;;;;;3.40;3.10;;;;;;;18.07;63.35;100446.63;4993252;28;20014;-48
2021/08/19 00:14:56;;;;;;;3.40;3.05;;;;;;;18.08;63.14;100445.69;4992745;28;20022;-49
2021/08/19 00:17:21;;;;;;;3.30;3.00;;;;;;;18.09;63.16;100446.59;4994938;28;20018;-48
2021/08/19 00:19:46;;;;;;;3.47;3.17;;;;;;;18.08;63.25;100453.69;4996230;28;20021;-49
2021/08/19 00:22:12;;;;;;;3.47;3.17;;;;;;;18.08;63.25;100451.00;4998620;28;20828;-48
2021/08/19 00:24:37;;;;;;;3.40;3.10;;;;;;;18.09;63.03;100451.91;4992985;28;20371;-49
2021/08/19 00:27:03;;;;;;;4.03;3.72;;;;;;;18.07;63.15;100448.41;4992610;28;20037;-49
2021/08/19 00:29:28;;;;;;;4.35;3.95;;;;;;;18.06;63.13;100442.22;4992172;28;20061;-49
2021/08/19 00:31:53;;;;;;;3.65;3.35;;;;;;;18.05;63.12;100445.84;4994580;28;20092;-48
2021/08/19 00:34:19;;;;;;;5.63;3.30;;;;;;;18.07;63.35;100449.28;5044424;23;20399;-49
2021/08/19 00:36:44;;;;;;;4.20;3.33;;;;;;;18.06;62.97;100442.22;5064665;28;20020;-48
2021/08/19 00:39:10;;;;;;;3.60;3.30;;;;;;;18.06;63.12;100444.91;5059734;28;20064;-48
2021/08/19 00:41:36;;;;;;;3.47;3.17;;;;;;;18.05;63.45;100440.50;5041563;28;20040;-48
2021/08/19 00:44:02;;;;;;;4.20;3.80;;;;;;;18.05;63.23;100440.50;5051291;28;20029;-49
2021/08/19 00:46:32;;;;;;;3.25;2.95;;;;;;;18.05;63.46;100439.63;5050499;28;20028;-49
2021/08/19 00:49:04;;;;;;;3.17;2.90;;;;;;;18.05;63.33;100440.50;5051127;28;20021;-49
2021/08/19 00:51:44;;;;;;;4.53;4.13;;;;;;;18.04;63.40;100443.22;5048121;28;20043;-48
2021/08/19 00:54:16;;;;;;;4.03;3.63;;;;;;;18.05;63.43;100447.63;5050204;28;20024;-49
2021/08/19 00:56:41;;;;;;;3.63;3.33;;;;;;;18.04;63.35;100444.09;5032230;28;20559;-48
2021/08/19 00:59:08;;;;;;;3.17;2.92;;;;;;;18.02;63.49;100439.75;5049527;28;20116;-48
2021/08/19 01:01:36;;;;;;;3.22;2.92;;;;;;;18.03;63.56;100447.69;5050188;28;20052;-49
2021/08/19 01:04:05;;;;;;;3.40;2.95;;;;;;;18.02;63.54;100445.97;5046067;28;20021;-49
2021/08/19 01:06:31;;;;;;;3.60;3.30;;;;;;;18.03;63.67;100442.34;5050409;28;20028;-49
2021/08/19 01:08:56;;;;;;;4.65;3.58;;;;;;;18.03;63.59;100450.38;5049301;28;20115;-49
2021/08/19 01:11:22;;;;;;;3.50;3.20;;;;;;;18.02;63.60;100443.31;5049618;28;20423;-49
2021/08/19 01:13:49;;;;;;;3.72;3.40;;;;;;;18.03;63.68;100442.34;5050633;28;20013;-48
2021/08/19 01:16:18;;;;;;;4.50;3.00;;;;;;;18.02;63.57;100439.75;5047675;28;20028;-49
2021/08/19 01:18:44;;;;;;;3.72;3.42;;;;;;;18.00;63.68;100437.16;5050478;28;20112;-49
2021/08/19 01:21:11;;;;;;;4.47;3.60;;;;;;;18.01;63.59;100438.88;5050306;28;20055;-48
2021/08/19 01:23:40;;;;;;;4.05;3.28;;;;;;;18.01;63.86;100438.88;5049367;28;20028;-48
2021/08/19 01:26:08;;;;;;;3.10;2.80;;;;;;;18.01;63.96;100438.88;5050491;28;20292;-49
2021/08/19 01:28:37;;;;;;;4.43;4.03;;;;;;;18.02;63.60;100439.75;5049063;28;20493;-49
2021/08/19 01:31:03;;;;;;;3.38;3.08;;;;;;;18.01;63.47;100444.22;5050072;28;20024;-48
2021/08/19 01:33:30;;;;;;;3.72;3.42;;;;;;;18.01;63.59;100438.03;5049849;28;20457;-49
2021/08/19 01:35:55;;;;;;;3.83;3.42;;;;;;;18.03;63.67;100436.13;5030684;28;20423;-48
2021/08/19 01:38:28;;;;;;;3.95;3.65;;;;;;;18.02;63.74;100439.75;5049339;28;20040;-49
2021/08/19 01:40:54;;;;;;;5.00;4.50;;;;;;;18.01;63.73;100430.03;5049695;28;20040;-48
2021/08/19 01:43:21;;;;;;;4.00;3.70;;;;;;;18.00;63.51;100425.63;5047485;28;20405;-48
2021/08/19 01:45:47;;;;;;;3.85;3.55;;;;;;;18.00;63.78;100431.81;5048802;28;20479;-48
2021/08/19 01:48:14;;;;;;;4.30;3.90;;;;;;;17.99;63.87;100427.41;5049756;28;20027;-48
2021/08/19 01:50:40;;;;;;;4.30;3.90;;;;;;;18.01;63.95;100432.69;5047191;28;20052;-48
2021/08/19 01:53:05;;;;;;;5.57;3.88;;;;;;;18.00;63.97;100430.97;5047375;28;20477;-48
2021/08/19 01:55:30;;;;;;;3.95;3.60;;;;;;;17.98;63.66;100425.69;5049738;28;20292;-48
2021/08/19 01:57:56;;;;;;;4.20;3.47;;;;;;;17.99;63.73;100424.75;5050471;28;20477;-48
2021/08/19 02:00:21;;;;;;;4.85;4.30;;;;;;;18.01;63.70;100430.03;5049764;28;20044;-49
2021/08/19 02:02:46;;;;;;;4.43;4.03;;;;;;;17.98;63.82;100430.16;5046696;28;20166;-48
2021/08/19 02:05:12;;;;;;;4.55;4.00;;;;;;;17.99;63.72;100423.88;5049276;28;20055;-48
2021/08/19 02:07:38;;;;;;;4.50;4.10;;;;;;;17.99;63.67;100427.41;5049291;28;20024;-48
2021/08/19 02:10:03;;;;;;;4.20;3.90;;;;;;;18.00;63.79;100425.63;5047343;28;20102;-48
2021/08/19 02:12:28;;;;;;;4.20;3.80;;;;;;;17.98;63.78;100423.03;5048706;28;20546;-49
2021/08/19 02:14:54;;;;;;;4.50;4.10;;;;;;;17.98;63.72;100425.69;5048812;28;20469;-49
2021/08/19 02:17:19;;;;;;;4.40;4.00;;;;;;;17.98;63.91;100427.47;5049029;28;20139;-48
2021/08/19 02:19:44;;;;;;;5.47;4.70;;;;;;;17.99;63.99;100423.88;5050247;28;20025;-49
2021/08/19 02:22:09;;;;;;;5.03;4.20;;;;;;;17.98;63.81;100423.03;5049534;28;20046;-48
2021/08/19 02:24:35;;;;;;;4.65;4.15;;;;;;;17.97;63.85;100415.94;5049162;28;20412;-48
2021/08/19 02:27:00;;;;;;;4.43;4.03;;;;;;;17.95;63.95;100420.50;5049959;28;20037;-48
2021/08/19 02:29:25;;;;;;;5.32;3.97;;;;;;;17.97;64.01;100415.09;5049271;28;20024;-48
2021/08/19 02:31:51;;;;;;;3.83;3.53;;;;;;;17.95;64.12;100412.50;5046420;28;20048;-48
2021/08/19 02:34:16;;;;;;;4.00;3.60;;;;;;;17.97;64.20;100404.41;5045820;28;20028;-48
2021/08/19 02:36:41;;;;;;;4.43;4.07;;;;;;;17.95;64.31;100407.16;5031623;28;20029;-49
2021/08/19 02:39:06;;;;;;;4.32;3.92;;;;;;;17.92;64.57;100407.28;5045473;28;20021;-48
2021/08/19 02:41:32;;;;;;;4.53;4.13;;;;;;;17.91;64.88;100400.22;5048374;28;20028;-48
2021/08/19 02:43:58;;;;;;;4.45;4.05;;;;;;;17.91;64.66;100393.06;5048593;28;20401;-48
2021/08/19 02:46:23;;;;;;;4.57;4.13;;;;;;;17.93;64.66;100395.66;5031287;28;20056;-48
2021/08/19 02:48:48;;;;;;;4.35;3.97;;;;;;;17.95;64.86;100396.47;5049393;28;20461;-49
2021/08/19 02:51:14;;;;;;;5.10;4.60;;;;;;;17.92;64.75;100397.47;5030507;28;20021;-49
2021/08/19 02:53:39;;;;;;;5.07;4.65;;;;;;;17.92;64.86;100397.47;5030637;28;20401;-48
2021/08/19 02:56:04;;;;;;;4.30;3.90;;;;;;;17.94;64.66;100394.75;5018431;28;20025;-48
2021/08/19 02:58:30;;;;;;;4.82;4.43;;;;;;;17.94;64.55;100389.41;5048556;28;20112;-48
2021/08/19 03:00:55;;;;;;;4.55;4.15;;;;;;;17.94;64.44;100397.41;5047461;28;20022;-48
2021/08/19 03:03:20;;;;;;;4.68;4.18;;;;;;;17.94;64.26;100392.94;5048875;28;20056;-48
2021/08/19 03:05:46;;;;;;;4.63;4.22;;;;;;;17.94;64.48;100394.75;5048049;28;20029;-48
2021/08/19 03:08:11;;;;;;;4.55;4.15;;;;;;;17.94;64.46;100392.09;5049160;28;20182;-48
2021/08/19 03:10:37;;;;;;;4.15;3.80;;;;;;;17.93;64.22;100401.00;5048774;28;20476;-48
2021/08/19 03:13:02;;;;;;;4.38;3.97;;;;;;;17.93;64.58;100393.88;5030864;28;20021;-48
2021/08/19 03:15:27;;;;;;;4.78;4.00;;;;;;;17.92;64.46;100380.59;5048895;28;20056;-48
2021/08/19 03:17:53;;;;;;;4.97;4.57;;;;;;;17.92;64.60;100377.94;5048208;28;20128;-48
2021/08/19 03:20:18;;;;;;;4.53;4.13;;;;;;;17.92;64.46;100369.94;5030923;28;20067;-48
2021/08/19 03:22:44;;;;;;;4.57;4.18;;;;;;;17.92;64.55;100380.59;5048298;28;20029;-48
2021/08/19 03:25:10;;;;;;;4.30;3.90;;;;;;;17.91;64.37;100384.22;5051480;28;20032;-48
2021/08/19 03:27:35;;;;;;;4.30;3.90;;;;;;;17.91;64.90;100387.72;5052324;28;20025;-48
2021/08/19 03:30:01;;;;;;;4.68;4.28;;;;;;;17.91;64.78;100395.72;5052494;28;20384;-48
2021/08/19 03:32:26;;;;;;;4.97;4.18;;;;;;;17.90;64.43;100393.13;5052388;28;20480;-48
2021/08/19 03:34:51;;;;;;;4.90;4.47;;;;;;;17.90;64.69;100402.00;5045739;28;20032;-48
2021/08/19 03:37:16;;;;;;;4.85;4.45;;;;;;;17.91;64.75;100389.53;5052493;28;20472;-49
2021/08/19 03:39:42;;;;;;;4.15;3.75;;;;;;;17.91;64.78;100392.22;5052466;28;20032;-48
2021/08/19 03:42:08;;;;;;;4.10;3.80;;;;;;;17.93;64.43;100393.00;5052749;28;20359;-48
2021/08/19 03:44:33;;;;;;;4.30;3.90;;;;;;;17.94;64.52;100392.94;5036674;28;20036;-48
2021/08/19 03:46:58;;;;;;;4.30;3.90;;;;;;;17.93;64.63;100399.22;5050429;28;20476;-48
2021/08/19 03:49:24;;;;;;;5.07;4.57;;;;;;;17.91;64.70;100395.72;5052282;28;20032;-48
2021/08/19 03:51:49;;;;;;;4.95;4.10;;;;;;;17.92;64.50;100399.28;5051996;28;20151;-48
2021/08/19 03:54:15;;;;;;;4.80;4.22;;;;;;;17.93;64.29;100398.34;5051977;28;20025;-49
2021/08/19 03:56:40;;;;;;;4.57;4.18;;;;;;;17.89;64.82;100391.41;5051541;28;20016;-49
2021/08/19 03:59:07;;;;;;;4.50;4.10;;;;;;;17.89;64.48;100396.75;5051906;28;20487;-48
2021/08/19 04:01:32;;;;;;;4.32;4.00;;;;;;;17.91;64.47;100405.56;5051302;28;20473;-49
2021/08/19 04:03:58;;;;;;;4.32;3.97;;;;;;;17.91;64.63;100400.22;5051380;28;20025;-49
2021/08/19 04:06:23;;;;;;;4.47;4.05;;;;;;;17.89;64.51;100396.75;5051651;28;20025;-48
2021/08/19 04:08:48;;;;;;;4.05;3.75;;;;;;;17.90;64.42;100396.69;5035936;28;20040;-48
2021/08/19 04:11:13;;;;;;;4.80;4.38;;;;;;;17.91;64.51;100402.88;5051656;28;20033;-49
2021/08/19 04:13:39;;;;;;;4.63;4.13;;;;;;;17.91;64.47;100397.56;5050436;28;20048;-48
2021/08/19 04:16:06;;;;;;;4.65;4.25;;;;;;;17.89;64.40;100399.41;5033698;28;20156;-49
2021/08/19 04:18:31;;;;;;;4.57;4.05;;;;;;;17.89;64.40;100399.41;5031947;28;20035;-48
2021/08/19 04:20:56;;;;;;;4.57;4.18;;;;;;;17.89;64.63;100402.94;5033463;28;20103;-48
2021/08/19 04:23:22;;;;;;;4.32;4.00;;;;;;;17.87;64.74;100402.13;5051691;28;20105;-48
2021/08/19 04:25:47;;;;;;;4.10;3.80;;;;;;;17.89;64.50;100412.75;5034625;28;20392;-48
2021/08/19 04:28:12;;;;;;;4.97;4.47;;;;;;;17.89;64.83;100404.75;5048122;28;20032;-49
2021/08/19 04:30:38;;;;;;;5.72;4.25;;;;;;;17.86;64.73;100404.88;5051689;28;20028;-49
2021/08/19 04:33:03;;;;;;;3.90;3.58;;;;;;;17.89;64.58;100402.94;5050453;28;20465;-48
2021/08/19 04:35:32;;;;;;;5.00;4.60;;;;;;;17.87;64.57;100406.63;5044410;28;20090;-49
2021/08/19 04:37:58;;;;;;;5.45;4.38;;;;;;;17.86;64.65;100411.09;5051277;28;20074;-49
2021/08/19 04:40:24;;;;;;;5.53;5.03;;;;;;;17.85;64.73;100411.16;5033880;28;20477;-48
2021/08/19 04:42:49;;;;;;;4.95;4.45;;;;;;;17.86;64.73;100410.22;5050494;28;20451;-48
2021/08/19 04:45:14;;;;;;;4.05;3.75;;;;;;;17.88;64.63;100411.03;5050654;28;20028;-48
2021/08/19 04:47:40;;;;;;;4.75;4.35;;;;;;;17.86;64.48;100419.09;5034580;28;20104;-48
2021/08/19 04:50:06;;;;;;;4.63;4.15;;;;;;;17.85;64.56;100414.69;5050904;28;20052;-48
2021/08/19 04:52:31;;;;;;;4.13;3.78;;;;;;;17.86;64.77;100423.53;5050884;28;20035;-48
2021/08/19 04:54:56;;;;;;;5.28;4.30;;;;;;;17.85;64.37;100424.47;5050473;28;20040;-48
2021/08/19 04:57:21;;;;;;;4.97;4.57;;;;;;;17.87;64.73;100425.31;5051096;28;20021;-49
2021/08/19 04:59:47;;;;;;;5.60;4.85;;;;;;;17.84;64.70;100415.59;5050345;28;20076;-49
2021/08/19 05:02:12;;;;;;;4.47;4.10;;;;;;;17.82;64.65;100413.03;5050750;28;20031;-49
2021/08/19 05:04:37;;;;;;;4.63;4.22;;;;;;;17.86;64.59;100420.88;5035859;28;20457;-49
2021/08/19 05:07:03;;;;;;;4.45;4.05;;;;;;;17.86;64.73;100412.88;5035732;28;20480;-49
2021/08/19 05:09:28;;;;;;;4.53;3.58;;;;;;;17.88;64.37;100429.69;5050637;28;20029;-48
2021/08/19 05:11:53;;;;;;;5.60;5.07;;;;;;;17.85;64.69;100420.03;5050946;28;20024;-49
2021/08/19 05:14:19;;;;;;;4.72;4.25;;;;;;;17.82;64.82;100415.69;5049794;28;20155;-48
2021/08/19 05:16:44;;;;;;;4.65;4.25;;;;;;;17.81;64.68;100424.63;5047980;28;20071;-49
2021/08/19 05:19:09;;;;;;;5.35;4.40;;;;;;;17.84;64.50;100426.28;5050934;28;20025;-49
2021/08/19 05:21:35;;;;;;;4.20;3.80;;;;;;;17.83;64.56;100424.56;5036320;28;20083;-49
2021/08/19 05:24:01;;;;;;;4.63;4.22;;;;;;;17.82;64.41;100426.38;5047940;28;20057;-49
2021/08/19 05:26:26;;;;;;;4.75;4.35;;;;;;;17.82;64.38;100434.38;5049284;28;20396;-49
2021/08/19 05:28:52;;;;;;;5.05;4.57;;;;;;;17.82;64.63;100431.72;5032927;28;20033;-49
2021/08/19 05:31:17;;;;;;;4.65;4.25;;;;;;;17.83;64.48;100429.88;5049832;28;20049;-49
2021/08/19 05:33:43;;;;;;;5.28;4.07;;;;;;;17.82;64.36;100434.38;5031069;28;20480;-49
2021/08/19 05:36:09;;;;;;;4.88;4.50;;;;;;;17.82;64.49;100433.50;5050680;28;20021;-49
2021/08/19 05:38:38;;;;;;;5.07;4.60;;;;;;;17.82;64.52;100439.72;5034385;28;20025;-49
2021/08/19 05:41:04;;;;;;;4.80;4.40;;;;;;;17.82;64.52;100444.16;5037482;28;20036;-49
2021/08/19 05:43:30;;;;;;;4.47;4.07;;;;;;;17.82;64.45;100441.50;5031980;28;20013;-49
2021/08/19 05:45:55;;;;;;;4.43;3.88;;;;;;;17.82;64.38;100445.03;5030332;28;20382;-49
2021/08/19 05:48:20;;;;;;;4.72;4.32;;;;;;;17.83;64.79;100443.22;5031244;28;20036;-49
2021/08/19 05:50:46;;;;;;;4.72;4.32;;;;;;;17.82;64.37;100445.03;5050257;28;20067;-49
2021/08/19 05:53:11;;;;;;;5.28;4.78;;;;;;;17.80;64.58;100438.91;5044294;28;20091;-47
2021/08/19 05:55:36;;;;;;;5.55;4.63;;;;;;;17.80;64.46;100441.56;5039972;28;20025;-48
2021/08/19 05:58:02;;;;;;;5.05;4.65;;;;;;;17.81;64.55;100445.94;5039833;28;20036;-47
2021/08/19 06:00:27;;;;;;;5.13;4.72;;;;;;;17.81;64.57;100440.63;5025259;28;20025;-47
2021/08/19 06:02:52;;;;;;;5.22;4.82;;;;;;;17.81;64.72;100448.63;5025465;28;20120;-48
2021/08/19 06:05:18;;;;;;;5.20;4.65;;;;;;;17.80;64.74;100451.34;5049382;28;20090;-48
2021/08/19 06:07:44;;;;;;;4.97;4.47;;;;;;;17.80;64.94;100452.22;5030263;28;20036;-49
2021/08/19 06:10:10;;;;;;;5.35;4.93;;;;;;;17.81;64.68;100453.97;5046484;28;20024;-49
2021/08/19 06:12:36;;;;;;;5.80;5.30;;;;;;;17.81;64.64;100453.97;5032873;28;20100;-49
2021/08/19 06:15:02;;;;;;;5.35;4.85;;;;;;;17.80;64.91;100452.22;5049520;28;20108;-48
2021/08/19 06:17:28;;;;;;;5.30;4.80;;;;;;;17.80;64.92;100449.56;5048824;28;20032;-49
2021/08/19 06:19:53;;;;;;;4.88;4.47;;;;;;;17.80;65.19;100446.00;5049655;28;20029;-48
2021/08/19 06:22:18;;;;;;;5.00;4.60;;;;;;;17.81;65.17;100456.63;5049651;28;20082;-48
2021/08/19 06:24:44;;;;;;;5.32;4.93;;;;;;;17.80;65.27;100452.22;5049008;28;20388;-48
2021/08/19 06:27:09;;;;;;;5.32;4.82;;;;;;;17.79;65.47;100445.16;5049306;28;20392;-48
2021/08/19 06:29:34;;;;;;;5.18;4.78;;;;;;;17.81;65.27;100440.63;5018105;28;20020;-49
2021/08/19 06:32:00;;;;;;;5.57;5.13;;;;;;;17.81;65.37;100445.94;5049178;28;20021;-48
2021/08/19 06:34:25;;;;;;;5.40;4.90;;;;;;;17.80;65.08;100446.91;5043791;28;20527;-49
2021/08/19 06:36:50;;;;;;;5.70;5.20;;;;;;;17.79;65.15;100447.84;5047116;28;20471;-48
2021/08/19 06:39:18;;;;;;;6.13;5.50;;;;;;;17.81;65.16;100453.97;5050092;28;20037;-48
2021/08/19 06:41:43;;;;;;;6.20;5.63;;;;;;;17.80;64.91;100446.91;5032900;28;20018;-48
2021/08/19 06:44:08;;;;;;;6.03;5.43;;;;;;;17.82;65.00;100452.16;5047670;28;20079;-48
2021/08/19 06:46:34;;;;;;;5.43;5.03;;;;;;;17.81;64.92;100453.97;5048497;28;20519;-48
2021/08/19 06:48:59;;;;;;;5.78;5.18;;;;;;;17.80;64.96;100446.91;5046203;28;20021;-49
2021/08/19 06:51:24;;;;;;;7.97;5.15;;;;;;;17.81;64.79;100443.28;5048788;28;20074;-49
2021/08/19 06:53:49;;;;;;;5.38;4.88;;;;;;;17.83;64.66;100445.88;5030530;28;20033;-49
2021/08/19 06:56:15;;;;;;;5.55;5.05;;;;;;;17.81;64.83;100443.28;5050581;28;20107;-49
2021/08/19 06:58:40;;;;;;;5.50;5.00;;;;;;;17.80;64.95;100440.69;5015844;28;20033;-49
2021/08/19 07:01:06;;;;;;;4.75;4.35;;;;;;;17.82;65.01;100454.84;5050191;28;20042;-49
2021/08/19 07:03:31;;;;;;;5.38;4.82;;;;;;;17.81;64.82;100442.44;5050231;28;20037;-48
2021/08/19 07:05:56;;;;;;;6.07;5.47;;;;;;;17.80;64.89;100444.22;5034341;28;20028;-49
2021/08/19 07:08:22;;;;;;;5.53;4.95;;;;;;;17.81;64.91;100448.63;5037683;28;20580;-48
2021/08/19 07:10:48;;;;;;;5.57;5.07;;;;;;;17.81;64.97;100439.78;5053117;28;20439;-49
2021/08/19 07:13:13;;;;;;;5.45;4.95;;;;;;;17.83;64.66;100443.22;5052388;28;20443;-48
2021/08/19 07:15:41;;;;;;;5.30;4.80;;;;;;;17.84;64.79;100444.94;5034812;28;20559;-49
2021/08/19 07:18:06;;;;;;;4.95;4.55;;;;;;;17.82;64.64;100438.81;5033834;28;20552;-49
2021/08/19 07:20:32;;;;;;;5.13;4.63;;;;;;;17.84;64.58;100447.63;5035363;28;20025;-48
2021/08/19 07:22:57;;;;;;;4.93;4.53;;;;;;;17.82;65.10;100450.38;5034867;28;20035;-48
2021/08/19 07:25:22;;;;;;;5.15;4.65;;;;;;;17.82;64.81;100458.38;5051224;28;20045;-48
2021/08/19 07:27:48;;;;;;;6.07;5.05;;;;;;;17.82;64.79;100458.38;5017834;28;20024;-49
2021/08/19 07:30:13;;;;;;;5.63;5.13;;;;;;;17.83;64.68;100456.56;5037457;28;20034;-49
2021/08/19 07:32:39;;;;;;;6.13;5.25;;;;;;;17.85;64.50;100456.50;5051096;28;20155;-49
2021/08/19 07:35:04;;;;;;;6.32;5.28;;;;;;;17.83;65.33;100462.78;5049080;28;20024;-49
2021/08/19 07:37:30;;;;;;;5.85;5.32;;;;;;;17.83;64.68;100452.09;5050217;28;20025;-49
2021/08/19 07:39:55;;;;;;;5.18;4.68;;;;;;;17.82;65.05;100466.38;5052212;28;20064;-49
2021/08/19 07:42:21;;;;;;;5.50;5.00;;;;;;;17.85;64.51;100459.16;5051990;28;20136;-48
2021/08/19 07:44:46;;;;;;;7.43;5.38;;;;;;;17.85;65.22;100464.50;5051939;28;20048;-48
2021/08/19 07:47:11;;;;;;;5.65;5.03;;;;;;;17.84;65.25;100468.97;5051713;28;20032;-48
2021/08/19 07:49:36;;;;;;;5.25;4.82;;;;;;;17.85;65.16;100475.16;5048164;28;20017;-48
2021/08/19 07:52:02;;;;;;;6.00;5.32;;;;;;;17.85;64.96;100472.50;5052472;28;20032;-48
2021/08/19 07:54:27;;;;;;;6.05;5.22;;;;;;;17.85;65.07;100480.50;5051515;28;20099;-48
2021/08/19 07:56:53;;;;;;;5.60;5.10;;;;;;;17.85;65.21;100477.84;5052485;28;20039;-48
2021/08/19 07:59:18;;;;;;;6.60;5.30;;;;;;;17.85;64.85;100476.03;5052617;28;20032;-48
2021/08/19 08:01:43;;;;;;;5.50;4.93;;;;;;;17.85;64.85;100476.03;5050054;28;20037;-48
2021/08/19 08:04:09;;;;;;;5.38;4.90;;;;;;;17.82;65.28;100469.06;5050791;28;20025;-48
2021/08/19 08:06:35;;;;;;;4.80;4.40;;;;;;;17.83;65.25;100470.78;5051698;28;20020;-48
2021/08/19 08:09:01;;;;;;;5.18;4.43;;;;;;;17.84;65.24;100474.28;5051479;28;20473;-48
2021/08/19 08:11:26;;;;;;;5.65;4.95;;;;;;;17.85;65.29;100481.38;5051861;28;20017;-48
2021/08/19 08:13:51;;;;;;;5.93;5.32;;;;;;;17.85;65.34;100475.16;5050304;28;20028;-48
2021/08/19 08:16:17;;;;;;;5.50;5.00;;;;;;;17.87;64.83;100473.31;5029262;28;20031;-48
2021/08/19 08:18:42;;;;;;;5.72;4.85;;;;;;;17.85;64.96;100477.84;5051611;28;20051;-48
2021/08/19 08:21:10;;;;;;;5.65;5.13;;;;;;;17.87;65.13;100489.31;5051754;28;20032;-48
2021/08/19 08:23:36;;;;;;;5.60;5.10;;;;;;;17.88;64.85;100485.72;5050953;28;20013;-48
2021/08/19 08:26:02;;;;;;;6.72;5.60;;;;;;;17.86;64.96;100499.13;5048694;28;20029;-48
2021/08/19 08:28:30;;;;;;;5.38;4.88;;;;;;;17.86;65.07;100493.78;5051900;28;20033;-48
2021/08/19 08:30:56;;;;;;;5.80;5.30;;;;;;;17.86;65.17;100493.78;5050433;28;20112;-49
2021/08/19 08:33:22;;;;;;;5.68;5.15;;;;;;;17.85;64.89;100499.19;5051004;28;20125;-49
2021/08/19 08:35:48;;;;;;;6.65;5.05;;;;;;;17.87;64.88;100502.66;5050974;28;20196;-48
2021/08/19 08:38:17;;;;;;;5.93;5.32;;;;;;;17.88;64.84;100497.25;5050699;28;20033;-48
2021/08/19 08:40:45;;;;;;;6.22;5.63;;;;;;;17.86;64.98;100511.56;5033837;28;20029;-48
2021/08/19 08:43:11;;;;;;;5.57;5.07;;;;;;;17.90;64.79;100515.84;5051576;28;20032;-48
2021/08/19 08:45:38;;;;;;;5.80;5.30;;;;;;;17.89;64.87;100516.78;5050307;28;20028;-48
2021/08/19 08:48:12;;;;;;;5.80;5.30;;;;;;;17.87;64.97;100516.00;5047724;28;20100;-48
2021/08/19 08:50:39;;;;;;;5.85;5.35;;;;;;;17.87;64.83;100513.34;5032057;28;20025;-48
2021/08/19 08:53:04;;;;;;;5.60;5.10;;;;;;;17.90;64.64;100514.06;5050977;28;20472;-48
2021/08/19 08:55:29;;;;;;;6.00;5.45;;;;;;;17.89;64.88;100516.78;5050732;28;20029;-48
2021/08/19 08:57:55;;;;;;;6.20;5.25;;;;;;;17.90;64.82;100513.19;5050548;28;20070;-48
2021/08/19 09:00:21;;;;;;;6.32;5.07;;;;;;;17.88;64.98;100510.59;5034658;28;20025;-48
2021/08/19 09:02:46;;;;;;;5.00;4.45;;;;;;;17.90;65.05;100510.50;5050255;28;20043;-48
2021/08/19 09:05:22;;;;;;;6.35;5.55;;;;;;;17.89;65.16;100520.34;5050189;28;20036;-48
2021/08/19 09:07:58;;;;;;;4.72;4.32;;;;;;;17.90;65.01;100522.06;5030119;28;20039;-48
2021/08/19 09:10:29;;;;;;;5.32;4.82;;;;;;;17.90;65.17;100522.06;5049563;28;20477;-48
2021/08/19 09:12:55;;;;;;;5.78;4.95;;;;;;;17.91;65.05;100517.59;5030054;28;20029;-48
2021/08/19 09:15:22;;;;;;;5.22;4.72;;;;;;;17.92;65.27;100524.66;5050010;28;20031;-48
2021/08/19 09:17:53;;;;;;;5.53;5.03;;;;;;;17.92;65.46;100524.66;5050075;28;20501;-48
2021/08/19 09:20:20;;;;;;;8.40;4.93;;;;;;;17.92;65.19;100530.00;5050486;28;20032;-48
2021/08/19 09:22:52;;;;;;;4.50;4.00;;;;;;;17.93;65.19;100537.94;5050457;28;20607;-48
2021/08/19 09:25:28;;;;;;;5.18;4.10;;;;;;;17.93;65.03;100526.38;5050292;28;20025;-48
2021/08/19 09:28:14;;;;;;;5.07;4.65;;;;;;;17.92;65.22;100536.22;5050556;28;20024;-48
2021/08/19 09:30:41;;;;;;;4.60;4.15;;;;;;;17.94;65.32;100530.81;5034306;28;20044;-48
2021/08/19 09:33:08;;;;;;;5.40;4.90;;;;;;;17.94;64.94;100523.66;5049062;28;20024;-48
2021/08/19 09:35:33;;;;;;;5.90;5.03;;;;;;;17.94;64.95;100531.66;5033528;28;20276;-48
2021/08/19 09:38:10;;;;;;;5.95;4.38;;;;;;;17.94;65.25;100525.47;5050433;28;20111;-48
2021/08/19 09:40:35;;;;;;;5.00;4.45;;;;;;;17.94;65.30;100530.81;5049486;28;20032;-48
2021/08/19 09:43:01;;;;;;;4.82;4.35;;;;;;;17.94;65.15;100523.66;5050236;28;20070;-48
2021/08/19 09:45:26;;;;;;;4.82;4.40;;;;;;;17.95;65.21;100524.53;5032052;28;20355;-47
2021/08/19 09:48:04;;;;;;;4.82;4.32;;;;;;;17.95;65.54;100524.53;5040453;28;20025;-47
2021/08/19 09:50:30;;;;;;;5.07;4.50;;;;;;;17.95;65.43;100513.88;5045016;28;20384;-47
2021/08/19 09:53:13;;;;;;;5.03;4.32;;;;;;;17.95;65.30;100522.72;5041534;28;20032;-47
2021/08/19 09:55:38;;;;;;;4.63;4.22;;;;;;;17.95;65.13;100525.38;5042615;28;20036;-47
2021/08/19 09:58:04;;;;;;;4.28;3.88;;;;;;;17.95;65.09;100530.72;5040634;28;20035;-47
2021/08/19 10:00:32;;;;;;;4.78;4.38;;;;;;;17.95;65.04;100536.06;5031275;28;20443;-47
2021/08/19 10:02:58;;;;;;;4.47;3.95;;;;;;;17.96;65.36;100528.94;5039135;28;20087;-47
2021/08/19 10:05:24;;;;;;;4.88;4.47;;;;;;;17.96;65.45;100528.94;5039381;28;20120;-47
2021/08/19 10:07:50;;;;;;;4.45;4.05;;;;;;;17.97;65.31;100528.00;5041955;28;20024;-47
2021/08/19 10:10:16;;;;;;;5.43;4.28;;;;;;;17.96;65.21;100531.59;5047194;28;20024;-47
2021/08/19 10:12:44;;;;;;;4.90;4.50;;;;;;;17.98;65.43;100529.75;5041060;28;20016;-47
2021/08/19 10:15:10;;;;;;;5.47;4.55;;;;;;;17.98;65.50;100534.22;5040650;28;20025;-47
2021/08/19 10:17:37;;;;;;;4.53;4.13;;;;;;;17.96;65.52;100526.25;5043513;28;20028;-47
2021/08/19 10:20:07;;;;;;;4.68;4.28;;;;;;;17.98;65.34;100531.53;5026300;28;20025;-47
2021/08/19 10:22:34;;;;;;;4.83;4.43;;;;;;;17.97;65.20;100530.66;5026078;28;20504;-47
2021/08/19 10:24:59;;;;;;;4.80;4.30;;;;;;;17.99;65.35;100525.25;5027879;28;20021;-47
2021/08/19 10:27:27;;;;;;;5.18;4.60;;;;;;;18.00;65.36;100527.88;5030051;28;20033;-47
2021/08/19 10:30:01;;;;;;;4.80;4.25;;;;;;;18.00;64.84;100527.88;5042470;28;20033;-46
2021/08/19 10:32:39;;;;;;;7.25;5.05;;;;;;;18.01;65.49;100516.25;5044196;28;20032;-47
2021/08/19 10:35:09;;;;;;;5.30;4.68;;;;;;;18.01;65.35;100518.06;5048695;28;20019;-47
2021/08/19 10:37:59;;;;;;;5.55;4.57;;;;;;;18.01;65.10;100526.94;5045629;28;20984;-46
2021/08/19 10:40:37;;;;;;;4.60;4.20;;;;;;;18.01;65.23;100534.94;5025938;28;20089;-47
2021/08/19 10:43:37;;;;;;;4.90;4.40;;;;;;;18.01;65.35;100524.25;5044177;28;20029;-47
2021/08/19 10:46:12;;;;;;;5.07;4.68;;;;;;;18.01;65.05;100529.59;5044107;28;20033;-47
2021/08/19 10:48:46;;;;;;;5.45;4.95;;;;;;;18.02;65.37;100525.13;5040190;28;20109;-47
2021/08/19 10:51:12;;;;;;;5.80;4.45;;;;;;;18.02;65.53;100525.13;5044243;28;20028;-47
2021/08/19 10:53:37;;;;;;;5.30;4.80;;;;;;;18.03;65.51;100529.53;5048733;28;20025;-47
2021/08/19 10:56:03;;;;;;;4.72;4.30;;;;;;;18.03;65.54;100533.06;5049854;28;20506;-47
2021/08/19 10:58:30;;;;;;;6.00;4.60;;;;;;;18.04;65.51;100534.81;5046233;28;20033;-46
2021/08/19 11:00:58;;;;;;;4.63;4.22;;;;;;;18.03;65.41;100527.75;5045188;28;20021;-47
2021/08/19 11:03:36;;;;;;;4.25;3.88;;;;;;;18.04;65.37;100528.63;5048441;28;20424;-47
2021/08/19 11:06:02;;;;;;;6.03;4.80;;;;;;;18.05;65.66;100523.22;5042951;28;20033;-47
2021/08/19 11:08:47;;;;;;;4.70;4.30;;;;;;;18.06;65.22;100522.28;5045273;28;20503;-47
2021/08/19 11:11:25;;;;;;;4.72;4.25;;;;;;;18.06;65.38;100524.94;5046952;28;20036;-47
2021/08/19 11:13:58;;;;;;;4.53;4.13;;;;;;;18.07;64.94;100523.13;5049128;28;20497;-48
2021/08/19 11:16:23;;;;;;;5.03;4.38;;;;;;;18.07;65.29;100526.69;5047467;28;20052;-47
2021/08/19 11:18:48;;;;;;;4.57;4.18;;;;;;;18.07;65.31;100524.00;5027678;28;20053;-47
2021/08/19 11:21:14;;;;;;;4.95;4.20;;;;;;;18.08;65.21;100533.75;5045210;28;20090;-47